createdAt,value
2019-02-15T00:01:45.425Z,84.40
2019-02-15T00:04:15.888Z,83.40
2019-02-15T00:06:46.638Z,83.10
2019-02-15T00:09:17.088Z,83.10
2019-02-15T00:11:47.840Z,83.00
2019-02-15T00:14:18.394Z,83.10
2019-02-15T00:16:48.841Z,83.40
2019-02-15T00:19:39.722Z,83.00
2019-02-15T00:22:10.786Z,83.10
2019-02-15T00:24:41.260Z,83.20
2019-02-15T00:27:11.720Z,83.30
2019-02-15T00:29:42.467Z,83.10
2019-02-15T00:32:13.416Z,83.10
2019-02-15T00:34:43.894Z,83.20
2019-02-15T00:37:14.740Z,82.20
2019-02-15T00:39:45.208Z,82.30
2019-02-15T00:42:15.685Z,82.60
2019-02-15T00:44:46.168Z,82.40
2019-02-15T00:47:35.892Z,83.30
2019-02-15T00:50:14.838Z,82.90
2019-02-15T00:53:22.825Z,82.30
2019-02-15T00:56:04.020Z,82.50
2019-02-15T00:58:52.250Z,83.00
2019-02-15T01:01:42.357Z,83.10
2019-02-15T01:04:18.941Z,83.10
2019-02-15T01:07:14.329Z,83.40
2019-02-15T01:10:06.854Z,83.10
2019-02-15T01:13:00.795Z,84.40
2019-02-15T01:15:31.256Z,83.90
2019-02-15T01:18:01.821Z,83.40
2019-02-15T01:20:32.341Z,82.90
2019-02-15T01:23:03.111Z,82.60
2019-02-15T01:25:40.814Z,83.40
2019-02-15T01:28:45.713Z,84.00
2019-02-15T01:31:30.362Z,84.40
2019-02-15T01:34:32.262Z,84.30
2019-02-15T01:37:12.184Z,84.10
2019-02-15T01:39:59.756Z,84.50
2019-02-15T01:42:49.248Z,83.80
2019-02-15T01:45:32.957Z,83.70
2019-02-15T01:48:03.788Z,83.10
2019-02-15T01:50:34.270Z,83.30
2019-02-15T01:53:05.095Z,84.00
2019-02-15T01:55:35.845Z,84.20
2019-02-15T01:58:06.280Z,84.30
2019-02-15T02:00:36.917Z,84.30
2019-02-15T02:03:07.393Z,84.80
2019-02-15T02:05:37.920Z,85.00
2019-02-15T02:08:10.060Z,84.90
2019-02-15T02:10:40.609Z,84.70
2019-02-15T02:13:11.080Z,85.30
2019-02-15T02:15:41.526Z,84.20
2019-02-15T02:18:11.991Z,84.30
2019-02-15T02:20:42.429Z,84.60
2019-02-15T02:23:12.893Z,85.00
2019-02-15T02:25:43.341Z,85.10
2019-02-15T02:28:13.833Z,84.70
2019-02-15T02:30:44.296Z,84.80
2019-02-15T02:33:15.139Z,84.60
2019-02-15T02:35:45.587Z,84.60
2019-02-15T02:38:16.038Z,85.00
2019-02-15T02:40:46.505Z,85.40
2019-02-15T02:43:16.951Z,85.20
2019-02-15T02:45:47.396Z,85.20
2019-02-15T02:48:17.865Z,85.00
2019-02-15T02:50:48.332Z,84.90
2019-02-15T02:53:18.977Z,84.70
2019-02-15T02:55:49.429Z,85.10
2019-02-15T02:58:20.176Z,85.60
2019-02-15T03:00:50.638Z,85.80
2019-02-15T03:03:21.341Z,85.40
2019-02-15T03:05:52.116Z,84.90
2019-02-15T03:08:22.581Z,85.20
2019-02-15T03:10:53.016Z,85.50
2019-02-15T03:13:23.458Z,85.50
2019-02-15T03:15:54.237Z,85.60
2019-02-15T03:18:25.524Z,85.80
2019-02-15T03:20:55.972Z,85.40
2019-02-15T03:23:26.693Z,85.40
2019-02-15T03:25:57.146Z,85.50
2019-02-15T03:28:27.919Z,85.90
2019-02-15T03:30:58.402Z,85.60
2019-02-15T03:33:28.851Z,85.30
2019-02-15T03:36:02.291Z,85.50
2019-02-15T03:38:46.718Z,85.90
2019-02-15T03:41:27.598Z,85.90
2019-02-15T03:43:58.056Z,86.20
2019-02-15T03:46:28.497Z,86.40
2019-02-15T03:48:58.947Z,85.90
2019-02-15T03:51:29.371Z,85.80
2019-02-15T03:54:00.172Z,86.10
2019-02-15T03:56:30.687Z,86.20
2019-02-15T03:59:01.118Z,86.00
2019-02-15T04:01:31.562Z,85.40
2019-02-15T04:04:02.001Z,84.90
2019-02-15T04:06:32.493Z,85.00
2019-02-15T04:09:04.365Z,85.00
2019-02-15T04:11:34.820Z,84.80
2019-02-15T04:14:05.606Z,85.30
2019-02-15T04:16:36.110Z,85.70
2019-02-15T04:19:06.959Z,85.60
2019-02-15T04:21:37.368Z,85.40
2019-02-15T04:24:07.889Z,85.30
2019-02-15T04:26:38.333Z,85.20
2019-02-15T04:29:08.781Z,85.20
2019-02-15T04:31:39.231Z,85.30
2019-02-15T04:34:10.330Z,85.50
2019-02-15T04:36:40.752Z,85.50
2019-02-15T04:39:11.198Z,85.70
2019-02-15T04:41:41.628Z,85.90
2019-02-15T04:44:12.098Z,85.80
2019-02-15T04:46:42.561Z,86.10
2019-02-15T04:49:13.011Z,85.90
2019-02-15T04:51:43.461Z,86.00
2019-02-15T04:54:13.906Z,86.40
2019-02-15T04:56:44.711Z,85.90
2019-02-15T04:59:15.182Z,86.30
2019-02-15T05:01:45.632Z,86.00
2019-02-15T05:04:16.509Z,85.50
2019-02-15T05:06:47.008Z,85.70
2019-02-15T05:09:17.469Z,86.00
2019-02-15T05:11:47.914Z,86.30
2019-02-15T05:14:18.440Z,86.60
2019-02-15T05:16:48.889Z,85.80
2019-02-15T05:19:19.424Z,85.80
2019-02-15T05:21:50.155Z,86.00
2019-02-15T05:24:20.629Z,85.50
2019-02-15T05:26:51.627Z,85.70
2019-02-15T05:29:22.415Z,86.10
2019-02-15T05:31:52.880Z,86.50
2019-02-15T05:34:23.346Z,86.10
2019-02-15T05:36:53.809Z,86.10
2019-02-15T05:39:24.511Z,86.10
2019-02-15T05:41:54.966Z,85.70
2019-02-15T05:44:25.420Z,86.50
2019-02-15T05:46:55.926Z,85.80
2019-02-15T05:49:26.725Z,85.70
2019-02-15T05:51:57.185Z,85.90
2019-02-15T05:54:27.727Z,86.10
2019-02-15T05:56:58.486Z,86.40
2019-02-15T05:59:28.960Z,86.10
2019-02-15T06:01:59.409Z,85.80
2019-02-15T06:04:29.872Z,85.80
2019-02-15T06:07:00.594Z,85.70
2019-02-15T06:09:31.175Z,85.60
2019-02-15T06:12:01.606Z,85.70
2019-02-15T06:14:32.110Z,85.80
2019-02-15T06:17:02.590Z,85.70
2019-02-15T06:19:33.111Z,86.00
2019-02-15T06:22:03.555Z,86.20
2019-02-15T06:24:34.047Z,86.00
2019-02-15T06:27:04.507Z,86.00
2019-02-15T06:29:34.981Z,86.20
2019-02-15T06:32:05.430Z,86.10
2019-02-15T06:34:36.193Z,85.80
2019-02-15T06:37:06.660Z,86.00
2019-02-15T06:39:37.160Z,86.00
2019-02-15T06:42:07.620Z,85.90
2019-02-15T06:44:38.357Z,86.00
2019-02-15T06:47:08.800Z,85.70
2019-02-15T06:49:39.633Z,85.50
2019-02-15T06:52:10.091Z,85.20
2019-02-15T06:54:40.940Z,85.40
2019-02-15T06:57:11.388Z,85.50
2019-02-15T07:00:01.723Z,85.50
2019-02-15T07:02:36.981Z,85.70
2019-02-15T07:05:21.169Z,85.50
2019-02-15T07:07:51.940Z,85.50
2019-02-15T07:10:22.410Z,85.80
2019-02-15T07:12:52.856Z,86.10
2019-02-15T07:15:23.405Z,86.30
2019-02-15T07:17:53.857Z,86.30
2019-02-15T07:20:24.329Z,86.30
2019-02-15T07:22:54.891Z,86.40
2019-02-15T07:25:26.260Z,86.30
2019-02-15T07:27:57.077Z,86.10
2019-02-15T07:30:27.561Z,85.80
2019-02-15T07:32:58.589Z,86.00
2019-02-15T07:35:29.049Z,86.30
2019-02-15T07:37:59.494Z,85.90
2019-02-15T07:40:29.936Z,86.00
2019-02-15T07:43:00.381Z,86.20
2019-02-15T07:45:31.196Z,86.40
2019-02-15T07:48:02.962Z,86.40
2019-02-15T07:50:33.799Z,86.20
2019-02-15T07:53:04.272Z,86.60
2019-02-15T07:55:34.721Z,86.70
2019-02-15T07:58:05.167Z,86.40
2019-02-15T08:00:35.631Z,86.20
2019-02-15T08:03:06.088Z,86.20
2019-02-15T08:05:36.542Z,86.10
2019-02-15T08:08:07.027Z,86.10
2019-02-15T08:10:39.424Z,85.90
2019-02-15T08:13:10.137Z,85.60
2019-02-15T08:15:40.909Z,85.60
2019-02-15T08:18:11.393Z,85.40
2019-02-15T08:20:41.861Z,85.40
2019-02-15T08:23:13.332Z,85.60
2019-02-15T08:25:44.138Z,85.80
2019-02-15T08:28:14.628Z,85.90
2019-02-15T08:30:45.103Z,86.00
2019-02-15T08:33:15.901Z,85.80
2019-02-15T08:35:46.367Z,86.10
2019-02-15T08:38:16.825Z,86.10
2019-02-15T08:40:47.274Z,85.90
2019-02-15T08:43:17.755Z,85.60
2019-02-15T08:45:48.193Z,86.20
2019-02-15T08:48:19.072Z,86.30
2019-02-15T08:50:49.568Z,85.50
2019-02-15T08:53:20.038Z,85.60
2019-02-15T08:55:50.830Z,85.30
2019-02-15T08:58:21.335Z,84.20
2019-02-15T09:00:51.805Z,83.90
2019-02-15T09:03:22.518Z,83.70
2019-02-15T09:05:52.968Z,82.80
2019-02-15T09:08:23.426Z,83.20
2019-02-15T09:10:54.182Z,82.40
2019-02-15T09:13:24.669Z,82.30
2019-02-15T09:15:55.399Z,81.80
2019-02-15T09:18:25.877Z,80.20
2019-02-15T09:23:31.913Z,79.40
2019-02-15T09:26:02.731Z,78.30
2019-02-15T09:28:37.686Z,78.00
2019-02-15T09:31:08.160Z,77.90
2019-02-15T09:33:38.627Z,78.20
2019-02-15T09:36:09.089Z,78.10
2019-02-15T09:38:39.547Z,77.80
2019-02-15T09:41:10.414Z,77.40
2019-02-15T09:43:40.929Z,77.30
2019-02-15T09:46:19.504Z,76.90
2019-02-15T09:48:43.878Z,75.70
2019-02-15T09:51:14.622Z,74.50
2019-02-15T09:53:45.370Z,75.10
2019-02-15T09:56:15.832Z,74.20
2019-02-15T09:58:46.304Z,74.20
2019-02-15T10:01:16.767Z,74.10
2019-02-15T10:03:47.249Z,73.90
2019-02-15T10:06:17.717Z,73.90
2019-02-15T10:08:48.820Z,73.20
2019-02-15T10:11:19.279Z,72.30
2019-02-15T10:13:49.808Z,71.70
2019-02-15T10:16:28.249Z,71.40
2019-02-15T10:18:52.413Z,71.20
2019-02-15T10:21:22.907Z,70.70
2019-02-15T10:23:53.937Z,69.10
2019-02-15T10:26:24.410Z,70.00
2019-02-15T10:28:55.197Z,69.60
2019-02-15T10:31:26.316Z,68.40
2019-02-15T10:33:56.757Z,68.30
2019-02-15T10:36:27.475Z,65.70
2019-02-15T10:38:57.922Z,65.60
2019-02-15T10:41:28.706Z,64.40
2019-02-15T10:43:59.211Z,63.20
2019-02-15T10:46:37.604Z,63.70
2019-02-15T10:49:02.313Z,63.40
2019-02-15T10:51:32.783Z,61.40
2019-02-15T10:54:03.244Z,61.70
2019-02-15T10:56:33.723Z,60.40
2019-02-15T10:59:04.197Z,59.80
2019-02-15T11:01:34.642Z,58.70
2019-02-15T11:04:05.117Z,56.90
2019-02-15T11:06:35.950Z,55.10
2019-02-15T11:09:11.282Z,51.90
2019-02-15T11:11:41.760Z,49.50
2019-02-15T11:14:12.297Z,49.00
2019-02-15T11:16:47.216Z,47.90
2019-02-15T11:19:15.389Z,47.10
2019-02-15T11:21:45.845Z,45.00
2019-02-15T11:24:16.680Z,45.00
2019-02-15T11:26:47.138Z,43.40
2019-02-15T11:29:17.626Z,42.40
2019-02-15T11:31:48.087Z,41.70
2019-02-15T11:34:18.563Z,41.20
2019-02-15T11:36:49.389Z,39.30
2019-02-15T11:39:20.299Z,39.00
2019-02-15T11:41:50.755Z,38.10
2019-02-15T11:44:21.301Z,37.70
2019-02-15T11:46:56.736Z,36.90
2019-02-15T11:49:24.322Z,36.60
2019-02-15T11:51:54.785Z,38.30
2019-02-15T11:54:25.332Z,37.50
2019-02-15T11:56:55.816Z,37.50
2019-02-15T11:59:26.296Z,38.10
2019-02-15T12:02:05.485Z,37.30
2019-02-15T12:04:29.013Z,36.20
2019-02-15T12:06:59.526Z,36.40
2019-02-15T12:09:29.992Z,35.60
2019-02-15T12:12:00.501Z,35.30
2019-02-15T12:14:31.037Z,35.90
2019-02-15T12:17:05.581Z,35.20
2019-02-15T12:19:34.670Z,35.90
2019-02-15T12:22:05.154Z,35.80
2019-02-15T12:24:35.621Z,34.90
2019-02-15T12:27:06.416Z,33.70
2019-02-15T12:29:36.989Z,34.30
2019-02-15T12:32:07.493Z,34.10
2019-02-15T12:34:37.987Z,34.10
2019-02-15T12:37:08.501Z,34.00
2019-02-15T12:39:38.966Z,34.20
2019-02-15T12:42:11.041Z,33.60
2019-02-15T12:44:41.543Z,33.80
2019-02-15T12:47:15.092Z,32.60
2019-02-15T12:49:44.905Z,31.90
2019-02-15T12:52:15.425Z,31.00
2019-02-15T12:54:46.355Z,30.40
2019-02-15T12:57:16.848Z,30.80
2019-02-15T12:59:47.338Z,31.00
2019-02-15T13:02:17.905Z,30.10
2019-02-15T13:04:48.382Z,29.90
2019-02-15T13:07:19.016Z,29.20
2019-02-15T13:09:51.957Z,29.30
2019-02-15T13:12:22.286Z,28.40
2019-02-15T13:14:52.818Z,29.80
2019-02-15T13:17:25.012Z,28.50
2019-02-15T13:19:55.723Z,28.50
2019-02-15T13:22:26.192Z,28.90
2019-02-15T13:24:56.950Z,29.00
2019-02-15T13:27:27.739Z,28.50
2019-02-15T13:29:58.561Z,28.20
2019-02-15T13:32:29.063Z,28.70
2019-02-15T13:34:59.997Z,28.90
2019-02-15T13:37:31.439Z,28.10
2019-02-15T13:40:02.293Z,28.40
2019-02-15T13:42:32.954Z,28.10
2019-02-15T13:47:51.865Z,27.80
2019-02-15T13:50:22.415Z,27.40
2019-02-15T13:52:52.943Z,27.20
2019-02-15T13:55:23.537Z,26.80
2019-02-15T13:57:54.108Z,27.60
2019-02-15T14:00:24.663Z,28.50
2019-02-15T14:02:55.133Z,29.00
2019-02-15T14:05:25.707Z,29.30
2019-02-15T14:07:57.278Z,29.80
2019-02-15T14:10:28.104Z,31.10
2019-02-15T14:12:58.653Z,31.30
2019-02-15T14:15:29.191Z,31.80
2019-02-15T14:17:59.690Z,33.20
2019-02-15T14:20:30.656Z,35.40
2019-02-15T14:23:01.157Z,36.20
2019-02-15T14:25:31.658Z,38.10
2019-02-15T14:28:02.161Z,39.30
2019-02-15T14:30:32.655Z,40.00
2019-02-15T14:33:03.159Z,41.50
2019-02-15T14:35:34.089Z,43.00
2019-02-15T14:38:04.837Z,43.90
2019-02-15T14:40:35.873Z,45.60
2019-02-15T14:43:06.370Z,46.10
2019-02-15T14:45:36.850Z,47.50
2019-02-15T14:48:07.641Z,48.00
2019-02-15T14:50:38.109Z,47.90
2019-02-15T14:53:08.610Z,48.30
2019-02-15T14:55:39.069Z,49.00
2019-02-15T14:58:09.568Z,49.10
2019-02-15T15:00:40.085Z,49.40
2019-02-15T15:03:10.613Z,49.60
2019-02-15T15:05:41.277Z,50.10
2019-02-15T15:08:11.796Z,51.40
2019-02-15T15:10:42.255Z,50.60
2019-02-15T15:13:12.793Z,50.50
2019-02-15T15:15:43.264Z,51.00
2019-02-15T15:18:13.779Z,51.60
2019-02-15T15:20:44.515Z,51.70
2019-02-15T15:23:16.157Z,51.90
2019-02-15T15:25:46.702Z,51.60
2019-02-15T15:28:17.164Z,52.00
2019-02-15T15:30:47.652Z,52.70
2019-02-15T15:33:18.550Z,53.60
2019-02-15T15:35:49.747Z,52.90
2019-02-15T15:38:20.289Z,53.20
2019-02-15T15:40:50.737Z,53.80
2019-02-15T15:43:21.263Z,53.50
2019-02-15T15:45:51.756Z,53.30
2019-02-15T15:48:23.084Z,54.10
2019-02-15T15:50:53.732Z,53.60
2019-02-15T15:53:24.188Z,53.80
2019-02-15T15:55:54.950Z,54.00
2019-02-15T15:58:25.775Z,54.40
2019-02-15T16:00:56.243Z,54.10
2019-02-15T16:03:26.740Z,54.70
2019-02-15T16:05:57.200Z,55.00
2019-02-15T16:08:27.711Z,56.00
2019-02-15T16:10:58.482Z,56.60
2019-02-15T16:13:28.989Z,56.30
2019-02-15T16:15:59.548Z,56.80
2019-02-15T16:18:34.227Z,57.10
2019-02-15T16:21:02.184Z,57.40
2019-02-15T16:23:32.981Z,57.30
2019-02-15T16:26:03.464Z,57.70
2019-02-15T16:28:34.393Z,57.60
2019-02-15T16:31:05.165Z,58.00
2019-02-15T16:33:35.617Z,58.70
2019-02-15T16:36:06.114Z,59.30
2019-02-15T16:38:37.447Z,59.70
2019-02-15T16:41:07.939Z,60.00
2019-02-15T16:43:38.417Z,60.00
2019-02-15T16:46:10.270Z,60.10
2019-02-15T16:48:42.300Z,60.70
2019-02-15T16:51:12.949Z,61.10
2019-02-15T16:53:43.801Z,61.20
2019-02-15T16:56:14.314Z,61.90
2019-02-15T16:58:45.222Z,62.40
2019-02-15T17:01:15.696Z,62.60
2019-02-15T17:03:46.171Z,63.20
2019-02-15T17:06:16.638Z,63.70
2019-02-15T17:08:47.107Z,63.50
2019-02-15T17:11:17.607Z,63.90
2019-02-15T17:13:48.100Z,64.20
2019-02-15T17:16:18.558Z,63.80
2019-02-15T17:18:51.744Z,65.20
2019-02-15T17:21:21.237Z,65.70
2019-02-15T17:23:51.737Z,65.70
2019-02-15T17:26:22.217Z,66.20
2019-02-15T17:28:52.953Z,66.40
2019-02-15T17:31:23.468Z,67.10
2019-02-15T17:33:54.287Z,67.30
2019-02-15T17:36:24.841Z,67.30
2019-02-15T17:38:55.612Z,67.00
2019-02-15T17:41:26.064Z,67.60
2019-02-15T17:43:56.550Z,67.90
2019-02-15T17:46:27.038Z,67.70
2019-02-15T17:49:00.688Z,68.30
2019-02-15T17:51:29.638Z,69.70
2019-02-15T17:54:00.163Z,68.90
2019-02-15T17:56:31.054Z,68.90
2019-02-15T17:59:01.548Z,69.20
2019-02-15T18:01:32.782Z,70.20
2019-02-15T18:04:03.933Z,69.30
2019-02-15T18:06:34.408Z,69.30
2019-02-15T18:09:06.437Z,70.00
2019-02-15T18:11:36.908Z,70.20
2019-02-15T18:14:07.382Z,70.20
2019-02-15T18:16:37.833Z,70.20
2019-02-15T18:19:10.038Z,70.40
2019-02-15T18:21:40.540Z,70.80
2019-02-15T18:24:11.010Z,71.20
2019-02-15T18:26:41.506Z,71.10
2019-02-15T18:29:11.993Z,71.10
2019-02-15T18:31:42.545Z,71.10
2019-02-15T18:34:13.024Z,71.50
2019-02-15T18:36:43.524Z,71.60
2019-02-15T18:39:14.048Z,71.50
2019-02-15T18:41:44.925Z,71.70
2019-02-15T18:44:15.464Z,71.90
2019-02-15T18:46:45.969Z,72.00
2019-02-15T18:49:19.366Z,72.20
2019-02-15T18:51:48.684Z,71.80
2019-02-15T18:54:19.593Z,72.10
2019-02-15T18:56:50.059Z,72.70
2019-02-15T18:59:20.568Z,72.00
2019-02-15T19:01:51.173Z,72.50
2019-02-15T19:04:21.658Z,72.50
2019-02-15T19:06:52.153Z,72.80
2019-02-15T19:09:22.648Z,72.90
2019-02-15T19:11:53.481Z,73.20
2019-02-15T19:14:23.985Z,73.60
2019-02-15T19:16:54.452Z,73.80
2019-02-15T19:19:29.156Z,73.50
2019-02-15T19:21:57.110Z,73.90
2019-02-15T19:24:27.582Z,74.20
2019-02-15T19:26:59.504Z,74.10
2019-02-15T19:29:31.993Z,74.00
2019-02-15T19:32:03.008Z,74.20
2019-02-15T19:34:33.477Z,73.50
2019-02-15T19:37:03.965Z,74.10
2019-02-15T19:39:34.434Z,73.60
2019-02-15T19:42:09.633Z,74.70
2019-02-15T19:44:40.493Z,74.60
2019-02-15T19:47:11.018Z,75.10
2019-02-15T19:49:41.507Z,75.10
2019-02-15T19:52:12.001Z,75.00
2019-02-15T19:54:42.486Z,75.00
2019-02-15T19:57:13.277Z,75.10
2019-02-15T19:59:53.203Z,75.30
2019-02-15T20:02:16.395Z,75.50
2019-02-15T20:04:48.149Z,75.50
2019-02-15T20:07:18.708Z,75.70
2019-02-15T20:09:49.434Z,75.90
2019-02-15T20:12:20.073Z,76.30
2019-02-15T20:14:50.604Z,76.60
2019-02-15T20:17:21.065Z,76.70
2019-02-15T20:19:51.546Z,76.70
2019-02-15T20:22:22.000Z,76.70
2019-02-15T20:24:52.497Z,76.90
2019-02-15T20:27:22.946Z,77.10
2019-02-15T20:29:53.406Z,77.10
2019-02-15T20:32:24.215Z,77.30
2019-02-15T20:34:54.680Z,77.40
2019-02-15T20:37:25.129Z,77.50
2019-02-15T20:39:55.606Z,77.60
2019-02-15T20:42:26.101Z,77.60
2019-02-15T20:44:56.601Z,77.50
2019-02-15T20:47:27.442Z,77.60
2019-02-15T20:49:58.380Z,77.80
2019-02-15T20:52:30.091Z,78.10
2019-02-15T20:55:00.549Z,78.50
2019-02-15T20:57:30.998Z,78.70
2019-02-15T21:00:01.483Z,78.40
2019-02-15T21:02:31.949Z,78.50
2019-02-15T21:05:02.430Z,78.90
2019-02-15T21:07:32.914Z,78.80
2019-02-15T21:10:03.422Z,79.10
2019-02-15T21:12:34.251Z,79.40
2019-02-15T21:15:04.846Z,79.50
2019-02-15T21:17:36.302Z,78.80
2019-02-15T21:20:08.330Z,78.10
2019-02-15T21:22:39.300Z,77.90
2019-02-15T21:25:11.743Z,78.30
2019-02-15T21:27:42.212Z,78.90
2019-02-15T21:30:13.833Z,79.50
2019-02-15T21:32:44.381Z,80.00
2019-02-15T21:35:15.355Z,79.50
2019-02-15T21:37:46.927Z,80.00
2019-02-15T21:40:17.441Z,80.20
2019-02-15T21:42:47.910Z,80.50
2019-02-15T21:45:18.387Z,80.50
2019-02-15T21:47:48.853Z,80.40
2019-02-15T21:50:19.324Z,80.70
2019-02-15T21:52:49.769Z,80.50
2019-02-15T21:55:20.249Z,80.20
2019-02-15T21:57:51.132Z,80.00
2019-02-15T22:00:21.743Z,80.40
2019-02-15T22:02:52.208Z,80.70
2019-02-15T22:05:22.673Z,81.00
2019-02-15T22:07:53.405Z,81.50
2019-02-15T22:10:23.868Z,81.70
2019-02-15T22:12:54.712Z,81.50
2019-02-15T22:15:25.193Z,81.30
2019-02-15T22:17:55.696Z,81.40
2019-02-15T22:20:27.109Z,81.70
2019-02-15T22:22:58.035Z,81.70
2019-02-15T22:25:28.814Z,81.70
2019-02-15T22:27:59.274Z,82.60
2019-02-15T22:30:30.057Z,81.30
2019-02-15T22:33:00.541Z,81.10
2019-02-15T22:35:31.017Z,81.30
2019-02-15T22:38:01.844Z,81.10
2019-02-15T22:40:43.330Z,80.80
2019-02-15T22:43:22.001Z,81.50
2019-02-15T22:45:52.472Z,82.00
2019-02-15T22:48:22.992Z,82.00
2019-02-15T22:50:53.460Z,81.70
2019-02-15T22:53:24.297Z,82.00
2019-02-15T22:55:54.761Z,82.00
2019-02-15T22:58:25.267Z,81.70
2019-02-15T23:01:08.553Z,81.60
2019-02-15T23:03:39.126Z,81.40
2019-02-15T23:06:09.624Z,82.00
2019-02-15T23:08:40.107Z,82.30
2019-02-15T23:11:10.972Z,81.30
2019-02-15T23:13:41.453Z,81.30
2019-02-15T23:16:11.976Z,81.40
2019-02-15T23:18:42.732Z,81.30
2019-02-15T23:21:13.196Z,80.90
2019-02-15T23:23:44.026Z,82.00
2019-02-15T23:26:14.510Z,82.00
2019-02-15T23:28:45.024Z,82.30
2019-02-15T23:31:15.493Z,82.10
2019-02-15T23:33:46.336Z,81.70
2019-02-15T23:36:16.816Z,81.60
2019-02-15T23:38:47.658Z,82.00
2019-02-15T23:41:18.129Z,82.30
2019-02-15T23:43:48.628Z,82.40
2019-02-15T23:46:19.159Z,82.70
2019-02-15T23:48:49.688Z,83.80
2019-02-15T23:51:20.154Z,83.20
2019-02-15T23:53:50.674Z,83.40
2019-02-15T23:56:21.569Z,83.00
2019-02-15T23:58:52.423Z,82.10
